sensor_id;sensor_type;location;lat;lon;timestamp;temperature;humidity
20915;DHT22;10617;52.032;5.298;2022-09-13T00:02:58;19.00;99.90
20915;DHT22;10617;52.032;5.298;2022-09-13T00:06:59;19.00;99.90
20915;DHT22;10617;52.032;5.298;2022-09-13T00:11:01;19.00;99.90
20915;DHT22;10617;52.032;5.298;2022-09-13T00:15:03;19.00;99.90
20915;DHT22;10617;52.032;5.298;2022-09-13T00:19:04;19.00;99.90
20915;DHT22;10617;52.032;5.298;2022-09-13T00:23:06;19.00;99.90
20915;DHT22;10617;52.032;5.298;2022-09-13T00:27:07;18.90;99.90
20915;DHT22;10617;52.032;5.298;2022-09-13T00:31:09;18.90;99.90
20915;DHT22;10617;52.032;5.298;2022-09-13T00:35:11;18.90;99.90
20915;DHT22;10617;52.032;5.298;2022-09-13T00:39:13;18.90;99.90
20915;DHT22;10617;52.032;5.298;2022-09-13T00:43:16;18.90;99.90
20915;DHT22;10617;52.032;5.298;2022-09-13T00:47:19;18.90;99.90
20915;DHT22;10617;52.032;5.298;2022-09-13T00:51:21;18.90;99.90
20915;DHT22;10617;52.032;5.298;2022-09-13T00:55:24;18.90;99.90
20915;DHT22;10617;52.032;5.298;2022-09-13T00:59:29;18.90;99.90
20915;DHT22;10617;52.032;5.298;2022-09-13T01:03:33;18.90;99.90
20915;DHT22;10617;52.032;5.298;2022-09-13T01:07:36;18.90;99.90
20915;DHT22;10617;52.032;5.298;2022-09-13T01:11:45;18.90;99.90
20915;DHT22;10617;52.032;5.298;2022-09-13T01:15:47;18.80;99.90
20915;DHT22;10617;52.032;5.298;2022-09-13T01:19:49;18.80;99.90
20915;DHT22;10617;52.032;5.298;2022-09-13T01:24:10;18.80;99.90
20915;DHT22;10617;52.032;5.298;2022-09-13T01:32:42;18.80;99.90
20915;DHT22;10617;52.032;5.298;2022-09-13T01:49:30;18.70;99.90
20915;DHT22;10617;52.032;5.298;2022-09-13T01:53:39;18.70;99.90
20915;DHT22;10617;52.032;5.298;2022-09-13T02:01:58;18.70;99.90
20915;DHT22;10617;52.032;5.298;2022-09-13T02:06:02;18.70;99.90
20915;DHT22;10617;52.032;5.298;2022-09-13T02:10:06;18.70;99.90
20915;DHT22;10617;52.032;5.298;2022-09-13T02:14:11;18.70;99.90
20915;DHT22;10617;52.032;5.298;2022-09-13T02:22:19;18.70;99.90
20915;DHT22;10617;52.032;5.298;2022-09-13T02:26:23;18.70;99.90
20915;DHT22;10617;52.032;5.298;2022-09-13T02:30:26;18.60;99.90
20915;DHT22;10617;52.032;5.298;2022-09-13T02:34:30;18.60;99.90
20915;DHT22;10617;52.032;5.298;2022-09-13T02:39:08;18.60;99.90
20915;DHT22;10617;52.032;5.298;2022-09-13T02:43:07;18.60;99.90
20915;DHT22;10617;52.032;5.298;2022-09-13T02:51:24;18.60;99.90
20915;DHT22;10617;52.032;5.298;2022-09-13T02:59:34;18.60;99.90
20915;DHT22;10617;52.032;5.298;2022-09-13T03:03:36;18.60;99.90
20915;DHT22;10617;52.032;5.298;2022-09-13T03:07:38;18.60;99.90
20915;DHT22;10617;52.032;5.298;2022-09-13T03:24:08;18.50;99.90
20915;DHT22;10617;52.032;5.298;2022-09-13T03:32:33;18.50;99.90
20915;DHT22;10617;52.032;5.298;2022-09-13T03:36:40;18.50;99.90
20915;DHT22;10617;52.032;5.298;2022-09-13T03:44:44;18.40;99.90
20915;DHT22;10617;52.032;5.298;2022-09-13T03:48:49;18.40;99.90
20915;DHT22;10617;52.032;5.298;2022-09-13T03:52:56;18.40;99.90
20915;DHT22;10617;52.032;5.298;2022-09-13T04:01:10;18.40;99.90
20915;DHT22;10617;52.032;5.298;2022-09-13T04:05:12;18.40;99.90
20915;DHT22;10617;52.032;5.298;2022-09-13T04:09:13;18.40;99.90
20915;DHT22;10617;52.032;5.298;2022-09-13T04:13:15;18.40;99.90
20915;DHT22;10617;52.032;5.298;2022-09-13T04:17:17;18.40;99.90
20915;DHT22;10617;52.032;5.298;2022-09-13T04:21:18;18.40;99.90
20915;DHT22;10617;52.032;5.298;2022-09-13T04:25:20;18.40;99.90
20915;DHT22;10617;52.032;5.298;2022-09-13T04:29:23;18.40;99.90
20915;DHT22;10617;52.032;5.298;2022-09-13T04:33:25;18.40;99.90
20915;DHT22;10617;52.032;5.298;2022-09-13T04:37:27;18.30;99.90
20915;DHT22;10617;52.032;5.298;2022-09-13T04:41:28;18.30;99.90
20915;DHT22;10617;52.032;5.298;2022-09-13T04:45:30;18.30;99.90
20915;DHT22;10617;52.032;5.298;2022-09-13T04:49:31;18.30;99.90
20915;DHT22;10617;52.032;5.298;2022-09-13T04:53:34;18.30;99.90
20915;DHT22;10617;52.032;5.298;2022-09-13T04:57:36;18.30;99.90
20915;DHT22;10617;52.032;5.298;2022-09-13T05:01:37;18.20;99.90
20915;DHT22;10617;52.032;5.298;2022-09-13T05:05:39;18.20;99.90
20915;DHT22;10617;52.032;5.298;2022-09-13T05:09:41;18.20;99.90
20915;DHT22;10617;52.032;5.298;2022-09-13T05:13:43;18.20;99.90
20915;DHT22;10617;52.032;5.298;2022-09-13T05:17:44;18.20;99.90
20915;DHT22;10617;52.032;5.298;2022-09-13T05:21:46;18.20;99.90
20915;DHT22;10617;52.032;5.298;2022-09-13T05:25:55;18.20;99.90
20915;DHT22;10617;52.032;5.298;2022-09-13T05:29:56;18.20;99.90
20915;DHT22;10617;52.032;5.298;2022-09-13T05:33:59;18.20;99.90
20915;DHT22;10617;52.032;5.298;2022-09-13T05:38:01;18.20;99.90
20915;DHT22;10617;52.032;5.298;2022-09-13T05:42:03;18.20;99.90
20915;DHT22;10617;52.032;5.298;2022-09-13T05:50:06;18.20;99.90
20915;DHT22;10617;52.032;5.298;2022-09-13T05:54:11;18.30;99.90
20915;DHT22;10617;52.032;5.298;2022-09-13T05:58:13;18.30;99.90
20915;DHT22;10617;52.032;5.298;2022-09-13T06:02:14;18.30;99.90
20915;DHT22;10617;52.032;5.298;2022-09-13T06:06:16;18.30;99.90
20915;DHT22;10617;52.032;5.298;2022-09-13T06:10:18;18.30;99.90
20915;DHT22;10617;52.032;5.298;2022-09-13T06:14:20;18.40;99.90
20915;DHT22;10617;52.032;5.298;2022-09-13T06:18:22;18.40;99.90
20915;DHT22;10617;52.032;5.298;2022-09-13T06:22:25;18.40;99.90
20915;DHT22;10617;52.032;5.298;2022-09-13T06:26:33;18.40;99.90
20915;DHT22;10617;52.032;5.298;2022-09-13T06:30:35;18.50;99.90
20915;DHT22;10617;52.032;5.298;2022-09-13T06:34:37;18.50;99.90
20915;DHT22;10617;52.032;5.298;2022-09-13T06:38:39;18.60;99.90
20915;DHT22;10617;52.032;5.298;2022-09-13T06:42:40;18.60;99.90
20915;DHT22;10617;52.032;5.298;2022-09-13T06:46:42;18.70;99.90
20915;DHT22;10617;52.032;5.298;2022-09-13T06:50:44;18.70;99.90
20915;DHT22;10617;52.032;5.298;2022-09-13T06:54:46;18.80;99.90
20915;DHT22;10617;52.032;5.298;2022-09-13T06:58:49;18.90;99.90
20915;DHT22;10617;52.032;5.298;2022-09-13T07:02:51;18.90;99.90
20915;DHT22;10617;52.032;5.298;2022-09-13T07:06:53;19.00;99.90
20915;DHT22;10617;52.032;5.298;2022-09-13T07:10:56;19.00;99.90
20915;DHT22;10617;52.032;5.298;2022-09-13T07:14:57;19.10;99.90
20915;DHT22;10617;52.032;5.298;2022-09-13T07:18:59;19.20;99.90
20915;DHT22;10617;52.032;5.298;2022-09-13T07:23:01;19.20;99.90
20915;DHT22;10617;52.032;5.298;2022-09-13T07:27:03;19.20;99.90
20915;DHT22;10617;52.032;5.298;2022-09-13T07:31:09;19.30;99.90
20915;DHT22;10617;52.032;5.298;2022-09-13T07:35:11;19.40;99.90
20915;DHT22;10617;52.032;5.298;2022-09-13T07:39:13;19.40;99.90
20915;DHT22;10617;52.032;5.298;2022-09-13T07:43:19;19.50;99.90
20915;DHT22;10617;52.032;5.298;2022-09-13T07:47:21;19.60;99.90
20915;DHT22;10617;52.032;5.298;2022-09-13T07:51:24;19.70;99.90
20915;DHT22;10617;52.032;5.298;2022-09-13T07:55:25;19.70;99.90
20915;DHT22;10617;52.032;5.298;2022-09-13T07:59:27;19.80;99.90
20915;DHT22;10617;52.032;5.298;2022-09-13T08:03:31;19.90;99.90
20915;DHT22;10617;52.032;5.298;2022-09-13T08:07:32;20.00;99.90
20915;DHT22;10617;52.032;5.298;2022-09-13T08:11:35;20.10;99.90
20915;DHT22;10617;52.032;5.298;2022-09-13T08:15:37;20.10;99.90
20915;DHT22;10617;52.032;5.298;2022-09-13T08:19:39;20.20;99.90
20915;DHT22;10617;52.032;5.298;2022-09-13T08:23:41;20.40;99.90
20915;DHT22;10617;52.032;5.298;2022-09-13T08:27:42;20.40;99.90
20915;DHT22;10617;52.032;5.298;2022-09-13T08:31:44;20.50;99.90
20915;DHT22;10617;52.032;5.298;2022-09-13T08:35:50;20.60;99.90
20915;DHT22;10617;52.032;5.298;2022-09-13T08:39:52;20.70;99.90
20915;DHT22;10617;52.032;5.298;2022-09-13T08:47:55;20.70;99.90
20915;DHT22;10617;52.032;5.298;2022-09-13T08:52:05;20.70;99.90
20915;DHT22;10617;52.032;5.298;2022-09-13T08:56:14;20.70;99.90
20915;DHT22;10617;52.032;5.298;2022-09-13T09:00:26;20.70;99.90
20915;DHT22;10617;52.032;5.298;2022-09-13T09:08:46;20.90;99.90
20915;DHT22;10617;52.032;5.298;2022-09-13T09:16:55;21.10;99.90
20915;DHT22;10617;52.032;5.298;2022-09-13T09:20:58;21.20;99.90
20915;DHT22;10617;52.032;5.298;2022-09-13T09:25:01;21.20;99.90
20915;DHT22;10617;52.032;5.298;2022-09-13T09:29:13;21.10;99.90
20915;DHT22;10617;52.032;5.298;2022-09-13T09:33:40;21.10;99.90
20915;DHT22;10617;52.032;5.298;2022-09-13T09:37:38;21.10;99.90
20915;DHT22;10617;52.032;5.298;2022-09-13T09:41:42;21.10;99.90
20915;DHT22;10617;52.032;5.298;2022-09-13T09:45:44;21.20;99.90
20915;DHT22;10617;52.032;5.298;2022-09-13T09:49:49;21.20;99.90
20915;DHT22;10617;52.032;5.298;2022-09-13T09:54:10;21.20;99.90
20915;DHT22;10617;52.032;5.298;2022-09-13T09:58:13;21.20;99.90
20915;DHT22;10617;52.032;5.298;2022-09-13T10:02:20;21.40;99.90
20915;DHT22;10617;52.032;5.298;2022-09-13T10:06:23;21.50;99.90
20915;DHT22;10617;52.032;5.298;2022-09-13T10:10:28;21.50;99.90
20915;DHT22;10617;52.032;5.298;2022-09-13T10:14:40;21.50;99.90
20915;DHT22;10617;52.032;5.298;2022-09-13T10:18:42;21.60;99.90
20915;DHT22;10617;52.032;5.298;2022-09-13T10:22:47;21.60;99.90
20915;DHT22;10617;52.032;5.298;2022-09-13T10:27:17;21.70;99.90
20915;DHT22;10617;52.032;5.298;2022-09-13T10:31:20;21.70;99.90
20915;DHT22;10617;52.032;5.298;2022-09-13T10:35:22;21.80;99.90
20915;DHT22;10617;52.032;5.298;2022-09-13T10:39:24;21.90;99.90
20915;DHT22;10617;52.032;5.298;2022-09-13T10:43:26;21.90;99.90
20915;DHT22;10617;52.032;5.298;2022-09-13T10:47:33;22.00;99.90
20915;DHT22;10617;52.032;5.298;2022-09-13T10:51:38;22.10;99.90
20915;DHT22;10617;52.032;5.298;2022-09-13T10:55:40;22.20;99.90
20915;DHT22;10617;52.032;5.298;2022-09-13T10:59:42;22.40;99.90
20915;DHT22;10617;52.032;5.298;2022-09-13T11:08:18;22.70;99.90
20915;DHT22;10617;52.032;5.298;2022-09-13T11:12:24;22.70;99.90
20915;DHT22;10617;52.032;5.298;2022-09-13T11:33:25;22.90;99.90
20915;DHT22;10617;52.032;5.298;2022-09-13T11:37:39;23.00;99.90
20915;DHT22;10617;52.032;5.298;2022-09-13T11:50:27;23.10;99.90
20915;DHT22;10617;52.032;5.298;2022-09-13T11:58:36;22.90;99.90
20915;DHT22;10617;52.032;5.298;2022-09-13T12:07:02;22.70;99.90
20915;DHT22;10617;52.032;5.298;2022-09-13T12:11:09;22.70;99.90
20915;DHT22;10617;52.032;5.298;2022-09-13T12:15:38;22.70;99.90
20915;DHT22;10617;52.032;5.298;2022-09-13T12:23:50;23.00;99.90
20915;DHT22;10617;52.032;5.298;2022-09-13T12:27:55;23.10;99.90
20915;DHT22;10617;52.032;5.298;2022-09-13T12:32:02;23.20;99.90
20915;DHT22;10617;52.032;5.298;2022-09-13T12:40:49;23.30;99.90
20915;DHT22;10617;52.032;5.298;2022-09-13T12:45:15;23.40;99.90
20915;DHT22;10617;52.032;5.298;2022-09-13T13:02:40;23.60;99.90
20915;DHT22;10617;52.032;5.298;2022-09-13T13:10:45;23.50;99.90
20915;DHT22;10617;52.032;5.298;2022-09-13T13:19:32;23.60;99.90
20915;DHT22;10617;52.032;5.298;2022-09-13T13:23:37;23.70;99.90
20915;DHT22;10617;52.032;5.298;2022-09-13T13:27:40;23.70;99.90
20915;DHT22;10617;52.032;5.298;2022-09-13T13:36:20;23.70;99.90
20915;DHT22;10617;52.032;5.298;2022-09-13T13:40:23;23.80;99.90
20915;DHT22;10617;52.032;5.298;2022-09-13T13:48:35;23.90;99.90
20915;DHT22;10617;52.032;5.298;2022-09-13T13:52:38;24.00;99.90
20915;DHT22;10617;52.032;5.298;2022-09-13T13:56:44;24.00;99.90
20915;DHT22;10617;52.032;5.298;2022-09-13T14:00:48;24.10;99.90
20915;DHT22;10617;52.032;5.298;2022-09-13T14:04:59;24.20;99.90
20915;DHT22;10617;52.032;5.298;2022-09-13T14:17:27;24.40;99.90
20915;DHT22;10617;52.032;5.298;2022-09-13T14:21:32;24.30;99.90
20915;DHT22;10617;52.032;5.298;2022-09-13T14:25:34;24.20;99.90
20915;DHT22;10617;52.032;5.298;2022-09-13T14:29:35;24.10;99.90
20915;DHT22;10617;52.032;5.298;2022-09-13T14:33:37;24.00;99.90
20915;DHT22;10617;52.032;5.298;2022-09-13T14:37:39;23.90;99.90
20915;DHT22;10617;52.032;5.298;2022-09-13T14:41:40;23.80;99.90
20915;DHT22;10617;52.032;5.298;2022-09-13T14:45:42;23.80;99.90
20915;DHT22;10617;52.032;5.298;2022-09-13T14:49:49;23.80;99.90
20915;DHT22;10617;52.032;5.298;2022-09-13T14:53:53;23.90;99.90
20915;DHT22;10617;52.032;5.298;2022-09-13T14:57:57;24.00;99.90
20915;DHT22;10617;52.032;5.298;2022-09-13T15:02:06;24.00;99.90
20915;DHT22;10617;52.032;5.298;2022-09-13T15:06:21;23.90;99.90
20915;DHT22;10617;52.032;5.298;2022-09-13T15:10:24;23.80;99.90
20915;DHT22;10617;52.032;5.298;2022-09-13T15:18:29;23.70;99.90
20915;DHT22;10617;52.032;5.298;2022-09-13T15:22:40;23.60;99.90
20915;DHT22;10617;52.032;5.298;2022-09-13T15:26:42;23.50;99.90
20915;DHT22;10617;52.032;5.298;2022-09-13T15:30:44;23.50;99.90
20915;DHT22;10617;52.032;5.298;2022-09-13T15:34:49;23.40;99.90
20915;DHT22;10617;52.032;5.298;2022-09-13T15:43:08;23.30;99.90
20915;DHT22;10617;52.032;5.298;2022-09-13T15:47:10;23.20;99.90
20915;DHT22;10617;52.032;5.298;2022-09-13T15:51:14;23.20;99.90
20915;DHT22;10617;52.032;5.298;2022-09-13T15:55:15;23.10;99.90
20915;DHT22;10617;52.032;5.298;2022-09-13T15:59:18;23.00;99.90
20915;DHT22;10617;52.032;5.298;2022-09-13T16:03:20;22.90;99.90
20915;DHT22;10617;52.032;5.298;2022-09-13T16:07:22;22.90;99.90
20915;DHT22;10617;52.032;5.298;2022-09-13T16:11:25;22.90;99.90
20915;DHT22;10617;52.032;5.298;2022-09-13T16:15:26;22.90;99.90
20915;DHT22;10617;52.032;5.298;2022-09-13T16:19:28;22.80;99.90
20915;DHT22;10617;52.032;5.298;2022-09-13T16:23:30;22.80;99.90
20915;DHT22;10617;52.032;5.298;2022-09-13T16:27:32;22.70;99.90
20915;DHT22;10617;52.032;5.298;2022-09-13T16:41:03;22.50;99.90
20915;DHT22;10617;52.032;5.298;2022-09-13T16:45:05;22.50;99.90
20915;DHT22;10617;52.032;5.298;2022-09-13T16:49:07;22.40;99.90
20915;DHT22;10617;52.032;5.298;2022-09-13T16:53:08;22.40;99.90
20915;DHT22;10617;52.032;5.298;2022-09-13T16:57:10;22.30;99.90
20915;DHT22;10617;52.032;5.298;2022-09-13T17:01:15;22.20;99.90
20915;DHT22;10617;52.032;5.298;2022-09-13T17:05:17;22.10;99.90
20915;DHT22;10617;52.032;5.298;2022-09-13T17:09:19;22.00;99.90
20915;DHT22;10617;52.032;5.298;2022-09-13T17:13:22;22.00;99.90
20915;DHT22;10617;52.032;5.298;2022-09-13T17:17:24;21.90;99.90
20915;DHT22;10617;52.032;5.298;2022-09-13T17:21:26;21.80;99.90
20915;DHT22;10617;52.032;5.298;2022-09-13T17:25:28;21.70;99.90
20915;DHT22;10617;52.032;5.298;2022-09-13T17:29:30;21.70;99.90
20915;DHT22;10617;52.032;5.298;2022-09-13T17:33:32;21.60;99.90
20915;DHT22;10617;52.032;5.298;2022-09-13T17:37:33;21.50;99.90
20915;DHT22;10617;52.032;5.298;2022-09-13T17:41:35;21.40;99.90
20915;DHT22;10617;52.032;5.298;2022-09-13T17:45:36;21.40;99.90
20915;DHT22;10617;52.032;5.298;2022-09-13T17:49:38;21.30;99.90
20915;DHT22;10617;52.032;5.298;2022-09-13T17:53:41;21.20;99.90
20915;DHT22;10617;52.032;5.298;2022-09-13T17:57:46;21.20;99.90
20915;DHT22;10617;52.032;5.298;2022-09-13T18:01:48;21.10;99.90
20915;DHT22;10617;52.032;5.298;2022-09-13T18:05:53;21.10;99.90
20915;DHT22;10617;52.032;5.298;2022-09-13T18:09:56;21.00;99.90
20915;DHT22;10617;52.032;5.298;2022-09-13T18:13:58;21.00;99.90
20915;DHT22;10617;52.032;5.298;2022-09-13T18:17:59;20.90;99.90
20915;DHT22;10617;52.032;5.298;2022-09-13T18:22:01;20.80;99.90
20915;DHT22;10617;52.032;5.298;2022-09-13T18:26:04;20.80;99.90
20915;DHT22;10617;52.032;5.298;2022-09-13T18:30:11;20.70;99.90
20915;DHT22;10617;52.032;5.298;2022-09-13T18:34:12;20.70;99.90
20915;DHT22;10617;52.032;5.298;2022-09-13T18:38:14;20.60;99.90
20915;DHT22;10617;52.032;5.298;2022-09-13T18:42:16;20.60;99.90
20915;DHT22;10617;52.032;5.298;2022-09-13T18:46:20;20.50;99.90
20915;DHT22;10617;52.032;5.298;2022-09-13T18:50:21;20.50;99.90
20915;DHT22;10617;52.032;5.298;2022-09-13T18:54:23;20.50;99.90
20915;DHT22;10617;52.032;5.298;2022-09-13T18:58:25;20.40;99.90
20915;DHT22;10617;52.032;5.298;2022-09-13T19:02:26;20.40;99.90
20915;DHT22;10617;52.032;5.298;2022-09-13T19:06:29;20.30;99.90
20915;DHT22;10617;52.032;5.298;2022-09-13T19:10:31;20.30;99.90
20915;DHT22;10617;52.032;5.298;2022-09-13T19:14:33;20.20;99.90
20915;DHT22;10617;52.032;5.298;2022-09-13T19:18:35;20.20;99.90
20915;DHT22;10617;52.032;5.298;2022-09-13T19:22:37;20.20;99.90
20915;DHT22;10617;52.032;5.298;2022-09-13T19:26:38;20.10;99.90
20915;DHT22;10617;52.032;5.298;2022-09-13T19:30:40;20.10;99.90
20915;DHT22;10617;52.032;5.298;2022-09-13T19:34:42;20.10;99.90
20915;DHT22;10617;52.032;5.298;2022-09-13T19:38:44;20.00;99.90
20915;DHT22;10617;52.032;5.298;2022-09-13T19:42:45;20.00;99.90
20915;DHT22;10617;52.032;5.298;2022-09-13T19:46:47;20.00;99.90
20915;DHT22;10617;52.032;5.298;2022-09-13T19:50:48;20.00;99.90
20915;DHT22;10617;52.032;5.298;2022-09-13T19:54:50;19.90;99.90
20915;DHT22;10617;52.032;5.298;2022-09-13T19:58:52;19.90;99.90
20915;DHT22;10617;52.032;5.298;2022-09-13T20:02:54;19.90;99.90
20915;DHT22;10617;52.032;5.298;2022-09-13T20:06:56;19.90;99.90
20915;DHT22;10617;52.032;5.298;2022-09-13T20:10:57;19.80;99.90
20915;DHT22;10617;52.032;5.298;2022-09-13T20:14:59;19.80;99.90
20915;DHT22;10617;52.032;5.298;2022-09-13T20:19:00;19.80;99.90
20915;DHT22;10617;52.032;5.298;2022-09-13T20:23:11;19.80;99.90
20915;DHT22;10617;52.032;5.298;2022-09-13T20:27:12;19.80;99.90
20915;DHT22;10617;52.032;5.298;2022-09-13T20:31:14;19.70;99.90
20915;DHT22;10617;52.032;5.298;2022-09-13T20:40:19;19.60;99.90
20915;DHT22;10617;52.032;5.298;2022-09-13T20:44:21;19.60;99.90
20915;DHT22;10617;52.032;5.298;2022-09-13T20:48:23;19.50;99.90
20915;DHT22;10617;52.032;5.298;2022-09-13T20:52:25;19.50;99.90
20915;DHT22;10617;52.032;5.298;2022-09-13T20:56:26;19.50;99.90
20915;DHT22;10617;52.032;5.298;2022-09-13T21:00:29;19.40;99.90
20915;DHT22;10617;52.032;5.298;2022-09-13T21:04:30;19.40;99.90
20915;DHT22;10617;52.032;5.298;2022-09-13T21:08:33;19.30;99.90
20915;DHT22;10617;52.032;5.298;2022-09-13T21:12:43;19.30;99.90
20915;DHT22;10617;52.032;5.298;2022-09-13T21:16:45;19.30;99.90
20915;DHT22;10617;52.032;5.298;2022-09-13T21:20:56;19.20;99.90
20915;DHT22;10617;52.032;5.298;2022-09-13T21:24:58;19.20;99.90
20915;DHT22;10617;52.032;5.298;2022-09-13T21:29:00;19.20;99.90
20915;DHT22;10617;52.032;5.298;2022-09-13T21:33:01;19.10;99.90
20915;DHT22;10617;52.032;5.298;2022-09-13T21:37:03;19.00;99.90
20915;DHT22;10617;52.032;5.298;2022-09-13T21:41:06;19.00;99.90
20915;DHT22;10617;52.032;5.298;2022-09-13T21:45:08;19.00;99.90
20915;DHT22;10617;52.032;5.298;2022-09-13T21:49:10;18.90;99.90
20915;DHT22;10617;52.032;5.298;2022-09-13T21:58:15;18.80;99.90
20915;DHT22;10617;52.032;5.298;2022-09-13T22:02:17;18.80;99.90
20915;DHT22;10617;52.032;5.298;2022-09-13T22:06:19;18.80;99.90
20915;DHT22;10617;52.032;5.298;2022-09-13T22:10:21;18.70;99.90
20915;DHT22;10617;52.032;5.298;2022-09-13T22:14:22;18.70;99.90
20915;DHT22;10617;52.032;5.298;2022-09-13T22:18:24;18.70;99.90
20915;DHT22;10617;52.032;5.298;2022-09-13T22:22:26;18.70;99.90
20915;DHT22;10617;52.032;5.298;2022-09-13T22:26:28;18.70;99.90
20915;DHT22;10617;52.032;5.298;2022-09-13T22:30:31;18.60;99.90
20915;DHT22;10617;52.032;5.298;2022-09-13T22:34:34;18.60;99.90
20915;DHT22;10617;52.032;5.298;2022-09-13T22:38:36;18.60;99.90
20915;DHT22;10617;52.032;5.298;2022-09-13T22:47:41;18.50;99.90
20915;DHT22;10617;52.032;5.298;2022-09-13T22:51:43;18.40;99.90
20915;DHT22;10617;52.032;5.298;2022-09-13T22:55:46;18.40;99.90
20915;DHT22;10617;52.032;5.298;2022-09-13T23:04:50;18.40;99.90
20915;DHT22;10617;52.032;5.298;2022-09-13T23:08:53;18.40;99.90
20915;DHT22;10617;52.032;5.298;2022-09-13T23:12:55;18.40;99.90
20915;DHT22;10617;52.032;5.298;2022-09-13T23:16:58;18.40;99.90
20915;DHT22;10617;52.032;5.298;2022-09-13T23:21:00;18.40;99.90
20915;DHT22;10617;52.032;5.298;2022-09-13T23:25:02;18.30;99.90
20915;DHT22;10617;52.032;5.298;2022-09-13T23:29:03;18.30;99.90
20915;DHT22;10617;52.032;5.298;2022-09-13T23:33:05;18.20;99.90
20915;DHT22;10617;52.032;5.298;2022-09-13T23:37:08;18.20;99.90
20915;DHT22;10617;52.032;5.298;2022-09-13T23:41:10;18.20;99.90
20915;DHT22;10617;52.032;5.298;2022-09-13T23:45:12;18.20;99.90
20915;DHT22;10617;52.032;5.298;2022-09-13T23:49:14;18.10;99.90
20915;DHT22;10617;52.032;5.298;2022-09-13T23:53:16;18.10;99.90
20915;DHT22;10617;52.032;5.298;2022-09-13T23:57:17;18.10;99.90
